KIFP/IFP METAR and TAF weather

Enter ICAO airport designator
Station Type Date Time Source
KIFP METAR 2020/04/02 03:15 UTC NOAA

KIFP 020315Z AUTO 16019KT 10SM CLR 26/00 A2960 RMK AO2


Station Type Date Time Source
KIFP Decoded METAR 2020/04/02 03:15 UTC NOAA

Bullhead City, Laughlin/Bullhead International Airport, AZ, United States (KIFP) 35-09-27N 114-33-34W
Apr 01, 2020 - 11:15 PM EDT / 2020.04.02 0315 UTC
Wind: from the SSE (160 degrees) at 22 MPH (19 KT):0
Visibility: 10 mile(s):0
Sky conditions: clear
Temperature: 78 F (26 C)
Dew Point: 32 F (0 C)
Relative Humidity: 18%
Pressure (altimeter): 29.6 in. Hg (1002 hPa)
ob: KIFP 020315Z AUTO 16019KT 10SM CLR 26/00 A2960 RMK AO2
cycle: 3

Station Type Date Time Source
KIFP TAF 2020/04/01 18:30 UTC NOAA

TAF KIFP 011728Z 0118/0218 19010KT P6SM BKN250
FM012000 18017G25KT P6SM FEW250
FM020300 15011KT P6SM SKC
FM021700 02012G22KT P6SM SKC

Example: see airport list